Time;durP1;ratioP1;P1;durP2;ratioP2;P2;SDS_P1;SDS_P2;PMS_P1;PMS_P2;Temp;Humidity;BMP_temperature;BMP_pressure;BME280_temperature;BME280_humidity;BME280_pressure;Samples;Min_cycle;Max_cycle;Signal;HPM_P1;HPM_P2
2024/03/04 00:00:35;;;;;;;17.10;12.87;;;;;;;;;;5056092;28;20493;-72
2024/03/04 00:03:02;;;;;;;18.07;14.13;;;;;;;;;;5056405;28;20539;-71
2024/03/04 00:05:29;;;;;;;14.00;11.80;;;;;;;;;;5056340;28;20456;-72
2024/03/04 00:07:56;;;;;;;15.50;12.17;;;;;;;;;;5056517;28;20888;-71
2024/03/04 00:10:24;;;;;;;17.67;13.80;;;;;;;;;;5056156;28;20808;-71
2024/03/04 00:12:51;;;;;;;18.27;13.97;;;;;;;;;;5055876;28;20566;-71
2024/03/04 00:15:19;;;;;;;16.37;11.80;;;;;;;;;;5055937;28;21010;-71
2024/03/04 00:17:46;;;;;;;15.17;13.33;;;;;;;;;;5056086;28;20440;-71
2024/03/04 00:20:13;;;;;;;18.93;13.80;;;;;;;;;;5055984;28;20540;-71
2024/03/04 00:22:42;;;;;;;15.33;12.33;;;;;;;;;;5055845;28;20445;-71
2024/03/04 00:25:14;;;;;;;15.10;13.30;;;;;;;;;;5056002;28;20440;-71
2024/03/04 00:27:42;;;;;;;14.97;12.37;;;;;;;;;;5055650;28;20951;-71
2024/03/04 00:30:09;;;;;;;17.00;13.23;;;;;;;;;;5056064;28;20539;-71
2024/03/04 00:32:36;;;;;;;15.70;13.10;;;;;;;;;;5055749;28;20572;-72
2024/03/04 00:35:05;;;;;;;15.63;12.73;;;;;;;;;;5055721;28;20475;-71
2024/03/04 00:37:32;;;;;;;15.90;14.00;;;;;;;;;;5055578;28;20440;-71
2024/03/04 00:39:59;;;;;;;17.23;12.50;;;;;;;;;;5055276;28;20468;-71
2024/03/04 00:42:27;;;;;;;15.97;13.37;;;;;;;;;;5055646;28;21039;-71
2024/03/04 00:44:55;;;;;;;16.00;13.40;;;;;;;;;;5055619;28;20444;-71
2024/03/04 00:47:22;;;;;;;17.20;13.00;;;;;;;;;;5055279;28;20956;-71
2024/03/04 00:49:49;;;;;;;16.07;12.30;;;;;;;;;;5055361;28;20531;-71
2024/03/04 00:52:17;;;;;;;17.00;12.50;;;;;;;;;;5055312;28;20476;-71
2024/03/04 00:54:44;;;;;;;21.40;14.50;;;;;;;;;;5055278;28;20448;-71
2024/03/04 00:57:10;;;;;;;16.40;13.70;;;;;;;;;;5055545;28;20535;-71
2024/03/04 00:59:37;;;;;;;18.10;12.90;;;;;;;;;;5055257;28;20531;-71
2024/03/04 01:02:06;;;;;;;17.30;12.50;;;;;;;;;;5055275;28;20555;-71
2024/03/04 01:04:33;;;;;;;21.63;14.17;;;;;;;;;;5055059;28;20455;-71
2024/03/04 01:07:00;;;;;;;16.47;13.57;;;;;;;;;;5054985;28;20454;-71
2024/03/04 01:09:27;;;;;;;16.97;14.00;;;;;;;;;;5055157;28;20566;-71
2024/03/04 01:11:54;;;;;;;15.20;13.13;;;;;;;;;;5055102;28;20535;-71
2024/03/04 01:14:21;;;;;;;15.10;12.90;;;;;;;;;;5055060;28;20588;-71
2024/03/04 01:16:49;;;;;;;18.03;13.30;;;;;;;;;;5054902;28;20540;-71
2024/03/04 01:19:17;;;;;;;19.03;13.97;;;;;;;;;;5054838;28;20817;-71
2024/03/04 01:21:44;;;;;;;16.67;12.73;;;;;;;;;;5054673;28;20444;-71
2024/03/04 01:24:11;;;;;;;17.13;13.50;;;;;;;;;;5054917;28;20498;-71
2024/03/04 01:26:38;;;;;;;15.73;12.77;;;;;;;;;;5054847;28;20451;-72
2024/03/04 01:29:08;;;;;;;21.57;15.37;;;;;;;;;;5054670;28;20804;-71
2024/03/04 01:31:35;;;;;;;15.80;13.10;;;;;;;;;;5054944;28;20451;-71
2024/03/04 01:34:02;;;;;;;17.90;13.10;;;;;;;;;;5054371;28;21094;-72
2024/03/04 01:36:30;;;;;;;17.53;13.10;;;;;;;;;;5054390;28;20452;-71
2024/03/04 01:38:57;;;;;;;15.50;12.50;;;;;;;;;;5054490;28;20504;-71
2024/03/04 01:41:25;;;;;;;20.93;14.90;;;;;;;;;;5054554;28;20448;-71
2024/03/04 01:43:51;;;;;;;19.60;13.83;;;;;;;;;;5054377;28;20974;-71
2024/03/04 01:46:19;;;;;;;18.27;13.80;;;;;;;;;;5054322;28;20448;-71
2024/03/04 01:48:46;;;;;;;17.70;13.57;;;;;;;;;;5054352;28;20808;-71
2024/03/04 01:51:14;;;;;;;17.80;13.93;;;;;;;;;;5054340;28;20875;-71
2024/03/04 01:53:42;;;;;;;17.70;13.63;;;;;;;;;;5054178;28;20912;-71
2024/03/04 01:56:10;;;;;;;15.97;14.20;;;;;;;;;;5054226;28;20455;-71
2024/03/04 01:58:40;;;;;;;16.77;13.90;;;;;;;;;;5053585;28;20611;-71
2024/03/04 02:01:07;;;;;;;17.30;14.47;;;;;;;;;;5053999;28;20534;-71
2024/03/04 02:03:35;;;;;;;19.10;14.17;;;;;;;;;;5054140;28;20503;-71
2024/03/04 02:06:04;;;;;;;19.03;14.70;;;;;;;;;;5054146;28;20451;-71
2024/03/04 02:08:31;;;;;;;20.27;14.83;;;;;;;;;;5053854;28;20459;-71
2024/03/04 02:10:59;;;;;;;16.67;13.43;;;;;;;;;;5053877;28;20531;-71
2024/03/04 02:13:27;;;;;;;17.90;15.00;;;;;;;;;;5053749;28;20484;-71
2024/03/04 02:15:54;;;;;;;18.93;15.10;;;;;;;;;;5053647;28;20448;-71
2024/03/04 02:18:21;;;;;;;20.63;13.90;;;;;;;;;;5053872;28;20518;-71
2024/03/04 02:20:49;;;;;;;20.53;15.10;;;;;;;;;;5053826;28;20539;-71
2024/03/04 02:23:17;;;;;;;19.50;15.40;;;;;;;;;;5053484;28;20960;-71
2024/03/04 02:25:52;;;;;;;19.00;14.40;;;;;;;;;;5053570;28;20444;-71
2024/03/04 02:28:20;;;;;;;22.43;15.90;;;;;;;;;;5053691;28;20469;-71
2024/03/04 02:30:47;;;;;;;19.47;15.00;;;;;;;;;;5053637;28;20845;-71
2024/03/04 02:33:15;;;;;;;20.37;16.03;;;;;;;;;;5053659;28;20515;-71
2024/03/04 02:35:44;;;;;;;22.77;15.80;;;;;;;;;;5053555;28;20540;-71
2024/03/04 02:38:11;;;;;;;21.10;16.33;;;;;;;;;;5053340;28;20454;-71
2024/03/04 02:40:40;;;;;;;23.20;17.47;;;;;;;;;;5053234;28;20507;-71
2024/03/04 02:43:07;;;;;;;21.97;17.30;;;;;;;;;;5053093;28;20452;-71
2024/03/04 02:45:35;;;;;;;22.47;16.70;;;;;;;;;;5053376;28;20453;-71
2024/03/04 02:48:01;;;;;;;26.30;18.93;;;;;;;;;;5053299;28;20455;-71
2024/03/04 02:50:28;;;;;;;19.93;17.70;;;;;;;;;;5053270;28;20899;-71
2024/03/04 02:52:55;;;;;;;23.13;17.10;;;;;;;;;;5053094;28;20562;-71
2024/03/04 02:55:22;;;;;;;21.70;18.03;;;;;;;;;;5052948;28;20535;-71
2024/03/04 02:57:50;;;;;;;27.70;19.10;;;;;;;;;;5052979;28;20539;-71
2024/03/04 03:00:18;;;;;;;22.43;18.23;;;;;;;;;;5053277;28;20455;-71
2024/03/04 03:02:45;;;;;;;26.00;17.80;;;;;;;;;;5053285;28;20440;-71
2024/03/04 03:05:12;;;;;;;31.57;18.20;;;;;;;;;;5052944;28;20487;-71
2024/03/04 03:07:39;;;;;;;24.40;19.57;;;;;;;;;;5052906;28;20460;-71
2024/03/04 03:10:06;;;;;;;31.13;21.03;;;;;;;;;;5051963;28;20441;-69
2024/03/04 03:12:34;;;;;;;27.50;20.30;;;;;;;;;;5052965;28;20475;-71
2024/03/04 03:15:02;;;;;;;27.13;21.00;;;;;;;;;;5052981;28;20583;-71
2024/03/04 03:17:29;;;;;;;34.20;22.27;;;;;;;;;;5052873;28;20449;-71
2024/03/04 03:19:56;;;;;;;30.53;22.67;;;;;;;;;;5052742;28;21003;-71
2024/03/04 03:22:23;;;;;;;26.10;21.53;;;;;;;;;;5052759;28;20547;-71
2024/03/04 03:24:50;;;;;;;29.57;22.20;;;;;;;;;;5052640;28;21057;-71
2024/03/04 03:27:17;;;;;;;34.07;25.60;;;;;;;;;;5052896;28;20483;-71
2024/03/04 03:29:44;;;;;;;34.27;25.17;;;;;;;;;;5052721;28;20452;-71
2024/03/04 03:32:12;;;;;;;35.47;25.40;;;;;;;;;;5052710;28;20535;-71
2024/03/04 03:34:39;;;;;;;29.73;24.40;;;;;;;;;;5052766;28;20574;-71
2024/03/04 03:37:06;;;;;;;30.83;25.17;;;;;;;;;;5052510;28;20960;-71
2024/03/04 03:39:33;;;;;;;30.70;25.03;;;;;;;;;;5052553;28;20835;-71
2024/03/04 03:42:00;;;;;;;36.27;28.40;;;;;;;;;;5052720;28;20480;-71
2024/03/04 03:44:27;;;;;;;36.30;28.53;;;;;;;;;;5052691;28;20455;-71
2024/03/04 03:46:54;;;;;;;37.67;27.73;;;;;;;;;;5052574;28;20478;-71
2024/03/04 03:49:22;;;;;;;37.23;30.87;;;;;;;;;;5052555;28;20528;-71
2024/03/04 03:51:49;;;;;;;40.70;30.27;;;;;;;;;;5052574;28;20730;-71
2024/03/04 03:54:16;;;;;;;36.40;28.80;;;;;;;;;;5052469;28;20825;-71
2024/03/04 03:56:43;;;;;;;37.77;30.00;;;;;;;;;;5052519;28;20448;-71
2024/03/04 03:59:10;;;;;;;39.97;28.10;;;;;;;;;;5052399;28;20531;-71
2024/03/04 04:01:37;;;;;;;48.30;31.47;;;;;;;;;;5052461;28;20487;-71
2024/03/04 04:04:04;;;;;;;35.40;27.87;;;;;;;;;;5052278;28;20448;-71
2024/03/04 04:06:32;;;;;;;42.07;30.80;;;;;;;;;;5052215;28;20449;-71
2024/03/04 04:08:59;;;;;;;38.57;27.40;;;;;;;;;;5052690;28;20535;-71
2024/03/04 04:11:26;;;;;;;40.10;30.83;;;;;;;;;;5052191;28;20531;-71
2024/03/04 04:13:53;;;;;;;39.03;30.90;;;;;;;;;;5052334;28;20486;-71
2024/03/04 04:16:20;;;;;;;41.57;29.93;;;;;;;;;;5052347;28;20535;-71
2024/03/04 04:18:47;;;;;;;35.60;28.00;;;;;;;;;;5052184;28;20543;-71
2024/03/04 04:21:14;;;;;;;42.30;32.73;;;;;;;;;;5053399;28;20483;-71
2024/03/04 04:23:42;;;;;;;41.73;29.70;;;;;;;;;;5055981;28;20459;-71
2024/03/04 04:26:09;;;;;;;44.80;31.80;;;;;;;;;;5055975;28;20534;-71
2024/03/04 04:28:36;;;;;;;36.93;28.80;;;;;;;;;;5055633;28;21018;-71
2024/03/04 04:31:03;;;;;;;41.37;30.73;;;;;;;;;;5055700;28;20448;-71
2024/03/04 04:33:30;;;;;;;38.83;29.67;;;;;;;;;;5055547;28;20472;-71
2024/03/04 04:35:58;;;;;;;39.20;30.57;;;;;;;;;;5055774;28;20444;-71
2024/03/04 04:38:25;;;;;;;38.33;30.37;;;;;;;;;;5055665;28;20444;-71
2024/03/04 04:40:53;;;;;;;37.60;29.77;;;;;;;;;;5055544;28;20516;-71
2024/03/04 04:43:21;;;;;;;40.47;30.07;;;;;;;;;;5055486;28;20881;-71
2024/03/04 04:45:49;;;;;;;40.73;29.20;;;;;;;;;;5055402;28;20451;-71
2024/03/04 04:48:15;;;;;;;38.77;30.53;;;;;;;;;;5055538;28;20446;-71
2024/03/04 04:50:42;;;;;;;45.23;31.03;;;;;;;;;;5055518;28;20449;-71
2024/03/04 04:53:09;;;;;;;41.07;29.70;;;;;;;;;;5055284;28;20531;-71
2024/03/04 04:55:36;;;;;;;41.83;29.57;;;;;;;;;;5055330;28;20459;-71
2024/03/04 04:58:05;;;;;;;41.83;30.17;;;;;;;;;;5055091;28;20444;-71
2024/03/04 05:00:32;;;;;;;38.47;30.77;;;;;;;;;;5055114;28;20444;-71
2024/03/04 05:02:58;;;;;;;35.93;27.33;;;;;;;;;;5055288;28;20450;-71
2024/03/04 05:05:25;;;;;;;41.23;32.00;;;;;;;;;;5055131;28;20625;-71
2024/03/04 05:07:52;;;;;;;45.20;32.00;;;;;;;;;;5055170;28;20461;-71
2024/03/04 05:10:19;;;;;;;35.80;29.50;;;;;;;;;;5054965;28;20452;-71
2024/03/04 05:12:48;;;;;;;46.17;31.57;;;;;;;;;;5054936;28;20531;-71
2024/03/04 05:15:17;;;;;;;47.90;34.07;;;;;;;;;;5054701;28;20484;-71
2024/03/04 05:17:44;;;;;;;41.00;30.83;;;;;;;;;;5054962;28;20452;-71
2024/03/04 05:20:15;;;;;;;48.97;32.80;;;;;;;;;;5054910;28;20488;-71
2024/03/04 05:22:42;;;;;;;45.03;33.37;;;;;;;;;;5054858;28;20455;-71
2024/03/04 05:25:09;;;;;;;46.87;34.27;;;;;;;;;;5054572;28;20963;-71
2024/03/04 05:27:36;;;;;;;43.13;32.87;;;;;;;;;;5054471;28;20869;-71
2024/03/04 05:30:03;;;;;;;48.40;34.57;;;;;;;;;;5054687;28;20480;-71
2024/03/04 05:32:32;;;;;;;49.93;34.60;;;;;;;;;;5053825;28;20540;-71
2024/03/04 05:34:59;;;;;;;51.27;34.97;;;;;;;;;;5054552;28;20484;-71
2024/03/04 05:37:26;;;;;;;44.40;33.60;;;;;;;;;;5054572;28;20517;-71
2024/03/04 05:39:52;;;;;;;50.83;36.03;;;;;;;;;;5054362;28;20482;-70
2024/03/04 05:42:19;;;;;;;54.63;37.93;;;;;;;;;;5054233;28;20878;-71
2024/03/04 05:44:46;;;;;;;49.17;38.00;;;;;;;;;;5054397;28;20539;-71
2024/03/04 05:47:13;;;;;;;48.43;35.27;;;;;;;;;;5054293;28;21045;-71
2024/03/04 05:49:41;;;;;;;51.73;36.10;;;;;;;;;;5054265;28;20536;-70
2024/03/04 05:52:08;;;;;;;50.67;38.10;;;;;;;;;;5054134;28;20546;-71
2024/03/04 05:54:35;;;;;;;49.33;38.40;;;;;;;;;;5053968;28;20480;-71
2024/03/04 05:57:02;;;;;;;54.67;39.60;;;;;;;;;;5054164;28;20535;-71
2024/03/04 05:59:29;;;;;;;50.50;38.17;;;;;;;;;;5054125;28;20440;-71
2024/03/04 06:01:56;;;;;;;59.73;39.70;;;;;;;;;;5054143;28;20823;-71
2024/03/04 06:04:24;;;;;;;54.37;39.70;;;;;;;;;;5053979;28;20878;-71
2024/03/04 06:06:52;;;;;;;52.23;37.80;;;;;;;;;;5053781;28;20451;-71
2024/03/04 06:09:19;;;;;;;50.33;39.10;;;;;;;;;;5053634;28;20498;-71
2024/03/04 06:11:46;;;;;;;59.23;38.67;;;;;;;;;;5053883;28;20501;-71
2024/03/04 06:14:13;;;;;;;56.03;39.57;;;;;;;;;;5053742;28;20475;-71
2024/03/04 06:16:40;;;;;;;56.30;39.60;;;;;;;;;;5053753;28;20448;-71
2024/03/04 06:19:07;;;;;;;56.40;41.87;;;;;;;;;;5053862;28;20451;-71
2024/03/04 06:21:35;;;;;;;61.20;39.27;;;;;;;;;;5053476;28;20451;-71
2024/03/04 06:24:03;;;;;;;55.23;39.37;;;;;;;;;;5053437;28;20452;-71
2024/03/04 06:26:30;;;;;;;51.80;38.13;;;;;;;;;;5053519;28;20448;-71
2024/03/04 06:28:57;;;;;;;51.73;39.57;;;;;;;;;;5053643;28;20537;-71
2024/03/04 06:31:24;;;;;;;59.80;39.50;;;;;;;;;;5053445;28;20510;-71
2024/03/04 06:33:51;;;;;;;52.73;39.10;;;;;;;;;;5053248;28;20472;-71
2024/03/04 06:36:18;;;;;;;65.80;41.47;;;;;;;;;;5053143;28;20495;-71
2024/03/04 06:38:45;;;;;;;52.67;37.77;;;;;;;;;;5053013;28;21010;-71
2024/03/04 06:41:13;;;;;;;59.03;40.63;;;;;;;;;;5053303;28;20448;-70
2024/03/04 06:43:40;;;;;;;53.93;39.23;;;;;;;;;;5053185;28;20539;-71
2024/03/04 06:46:07;;;;;;;51.83;37.80;;;;;;;;;;5053234;28;20480;-71
2024/03/04 06:48:34;;;;;;;55.80;39.30;;;;;;;;;;5053032;28;20543;-71
2024/03/04 06:51:02;;;;;;;57.80;40.60;;;;;;;;;;5053000;28;20885;-71
2024/03/04 06:53:29;;;;;;;56.20;37.33;;;;;;;;;;5053239;28;20559;-71
2024/03/04 06:55:56;;;;;;;51.43;38.20;;;;;;;;;;5052950;28;20490;-71
2024/03/04 06:58:24;;;;;;;50.97;37.87;;;;;;;;;;5053002;28;20462;-71
2024/03/04 07:00:51;;;;;;;53.97;37.30;;;;;;;;;;5053020;28;20955;-71
2024/03/04 07:03:18;;;;;;;45.60;37.10;;;;;;;;;;5052834;28;20448;-71
2024/03/04 07:05:45;;;;;;;47.20;37.53;;;;;;;;;;5052768;28;20939;-71
2024/03/04 07:08:12;;;;;;;57.57;38.90;;;;;;;;;;5052953;28;20436;-71
2024/03/04 07:10:39;;;;;;;51.73;37.60;;;;;;;;;;5052968;28;20527;-71
2024/03/04 07:13:05;;;;;;;50.93;35.37;;;;;;;;;;5052955;28;20880;-71
2024/03/04 07:15:34;;;;;;;47.23;36.00;;;;;;;;;;5052681;28;20563;-71
2024/03/04 07:18:01;;;;;;;45.83;35.37;;;;;;;;;;5052674;28;20900;-72
2024/03/04 07:20:28;;;;;;;55.67;37.00;;;;;;;;;;5053132;28;20543;-71
2024/03/04 07:22:54;;;;;;;47.00;35.67;;;;;;;;;;5052858;28;20479;-71
2024/03/04 07:25:21;;;;;;;48.97;34.10;;;;;;;;;;5052830;28;20558;-71
2024/03/04 07:27:48;;;;;;;48.77;36.13;;;;;;;;;;5052698;28;20535;-70
2024/03/04 07:30:15;;;;;;;53.50;34.57;;;;;;;;;;5052571;28;20804;-70
2024/03/04 07:32:44;;;;;;;49.13;34.53;;;;;;;;;;5052436;28;20536;-70
2024/03/04 07:35:10;;;;;;;48.93;33.40;;;;;;;;;;5052518;28;20514;-70
2024/03/04 07:37:37;;;;;;;45.50;35.23;;;;;;;;;;5052626;28;20982;-70
2024/03/04 07:40:05;;;;;;;48.33;35.50;;;;;;;;;;5052209;28;20570;-70
2024/03/04 07:42:32;;;;;;;47.17;35.47;;;;;;;;;;5070773;28;20526;-71
2024/03/04 07:44:58;;;;;;;46.93;34.67;;;;;;;;;;5072449;28;20530;-71
2024/03/04 07:47:25;;;;;;;58.63;38.23;;;;;;;;;;5072569;28;20439;-70
2024/03/04 07:49:53;;;;;;;47.13;34.83;;;;;;;;;;5072602;28;20474;-70
2024/03/04 07:52:21;;;;;;;43.97;34.20;;;;;;;;;;5072475;28;20431;-71
2024/03/04 07:54:48;;;;;;;53.13;35.00;;;;;;;;;;5072345;28;20805;-71
2024/03/04 07:57:15;;;;;;;44.73;35.30;;;;;;;;;;5075266;28;20443;-71
2024/03/04 07:59:42;;;;;;;45.90;33.83;;;;;;;;;;5076083;28;20535;-70
2024/03/04 08:02:09;;;;;;;47.47;36.93;;;;;;;;;;5076287;28;20811;-70
2024/03/04 08:04:36;;;;;;;52.40;37.90;;;;;;;;;;5075546;28;20444;-69
2024/03/04 08:07:05;;;;;;;44.60;34.33;;;;;;;;;;5076101;28;20444;-65
2024/03/04 08:09:32;;;;;;;53.70;35.40;;;;;;;;;;5075869;28;20439;-70
2024/03/04 08:11:59;;;;;;;47.77;36.23;;;;;;;;;;5075682;28;21029;-63
2024/03/04 08:14:26;;;;;;;44.67;33.70;;;;;;;;;;5075787;28;20447;-64
2024/03/04 08:16:52;;;;;;;53.53;37.90;;;;;;;;;;5076026;28;20538;-64
2024/03/04 08:19:19;;;;;;;49.70;33.90;;;;;;;;;;5075787;28;20534;-64
2024/03/04 08:21:47;;;;;;;46.93;35.37;;;;;;;;;;5075933;28;20788;-64
2024/03/04 08:24:16;;;;;;;47.83;35.80;;;;;;;;;;5075786;28;20508;-70
2024/03/04 08:26:43;;;;;;;49.73;35.00;;;;;;;;;;5075550;28;20468;-74
2024/03/04 08:29:09;;;;;;;45.37;33.97;;;;;;;;;;5075766;28;20939;-66
2024/03/04 08:31:38;;;;;;;46.57;35.60;;;;;;;;;;5075396;28;20610;-68
2024/03/04 08:34:05;;;;;;;46.00;33.67;;;;;;;;;;5075586;28;20447;-68
2024/03/04 08:36:32;;;;;;;49.43;34.43;;;;;;;;;;5075227;28;20490;-69
2024/03/04 08:38:59;;;;;;;48.07;33.90;;;;;;;;;;5075370;28;20471;-65
2024/03/04 08:41:27;;;;;;;42.17;32.43;;;;;;;;;;5075324;28;20798;-68
2024/03/04 08:43:54;;;;;;;44.17;34.30;;;;;;;;;;5075428;28;20439;-65
2024/03/04 08:46:21;;;;;;;45.43;32.80;;;;;;;;;;5075401;28;20565;-64
2024/03/04 08:48:48;;;;;;;44.43;32.77;;;;;;;;;;5074991;28;20443;-67
2024/03/04 08:51:17;;;;;;;46.90;31.70;;;;;;;;;;5075254;28;20546;-68
2024/03/04 08:53:44;;;;;;;47.23;32.53;;;;;;;;;;5075163;28;21043;-71
2024/03/04 08:56:11;;;;;;;47.57;33.77;;;;;;;;;;5075326;28;20483;-67
2024/03/04 08:58:42;;;;;;;40.87;31.40;;;;;;;;;;5075134;28;20534;-67
2024/03/04 09:01:09;;;;;;;40.50;30.53;;;;;;;;;;5075129;28;20447;-67
2024/03/04 09:03:36;;;;;;;41.47;31.90;;;;;;;;;;5074902;28;20505;-65
2024/03/04 09:06:04;;;;;;;50.43;34.73;;;;;;;;;;5075160;28;20451;-66
2024/03/04 09:08:30;;;;;;;46.40;34.50;;;;;;;;;;5073479;28;20443;-69
2024/03/04 09:10:58;;;;;;;49.30;34.23;;;;;;;;;;5074960;28;20534;-67
2024/03/04 09:13:26;;;;;;;46.07;33.80;;;;;;;;;;5075169;28;20459;-71
2024/03/04 09:15:54;;;;;;;38.90;31.37;;;;;;;;;;5074817;28;20704;-68
2024/03/04 09:18:21;;;;;;;45.57;31.90;;;;;;;;;;5074775;28;20450;-67
2024/03/04 09:20:48;;;;;;;36.83;32.17;;;;;;;;;;5074642;28;20447;-67
2024/03/04 09:23:15;;;;;;;42.60;32.80;;;;;;;;;;5074570;28;21015;-66
2024/03/04 09:25:42;;;;;;;43.47;33.50;;;;;;;;;;5074734;28;20458;-69
2024/03/04 09:28:09;;;;;;;41.17;32.20;;;;;;;;;;5074689;28;20864;-68
2024/03/04 09:30:35;;;;;;;42.90;32.10;;;;;;;;;;5074396;28;20544;-67
2024/03/04 09:33:04;;;;;;;38.80;32.00;;;;;;;;;;5074623;28;20876;-68
2024/03/04 09:35:31;;;;;;;40.50;33.57;;;;;;;;;;5074255;28;20895;-69
2024/03/04 09:37:58;;;;;;;45.80;34.23;;;;;;;;;;5074531;28;20522;-68
2024/03/04 09:40:25;;;;;;;37.30;32.60;;;;;;;;;;5074319;28;20499;-68
2024/03/04 09:42:52;;;;;;;38.67;31.30;;;;;;;;;;5074343;28;20534;-70
2024/03/04 09:45:19;;;;;;;39.77;32.27;;;;;;;;;;5074282;28;20443;-73
2024/03/04 09:47:47;;;;;;;45.83;32.40;;;;;;;;;;5074042;28;20439;-72
2024/03/04 09:50:18;;;;;;;41.00;32.33;;;;;;;;;;5073874;28;20884;-72
2024/03/04 09:52:45;;;;;;;43.23;35.33;;;;;;;;;;5073735;28;20447;-72
2024/03/04 09:55:12;;;;;;;44.77;33.43;;;;;;;;;;5074128;28;20554;-72
2024/03/04 09:57:39;;;;;;;43.53;31.40;;;;;;;;;;5073908;28;20444;-73
2024/03/04 10:00:07;;;;;;;42.03;31.73;;;;;;;;;;5073883;28;20447;-73
2024/03/04 10:02:34;;;;;;;42.33;34.53;;;;;;;;;;5073741;28;20501;-72
2024/03/04 10:05:02;;;;;;;42.10;34.30;;;;;;;;;;5073985;28;20534;-72
2024/03/04 10:07:34;;;;;;;39.70;33.00;;;;;;;;;;5073827;28;20811;-73
2024/03/04 10:10:01;;;;;;;38.90;32.20;;;;;;;;;;5073855;28;20805;-73
2024/03/04 10:12:28;;;;;;;42.20;34.50;;;;;;;;;;5074049;28;20539;-72
2024/03/04 10:14:59;;;;;;;43.30;34.40;;;;;;;;;;5072728;28;20443;-65
2024/03/04 10:17:26;;;;;;;42.13;31.90;;;;;;;;;;5073063;28;20446;-65
2024/03/04 10:19:58;;;;;;;40.97;32.70;;;;;;;;;;5071729;28;20487;-68
2024/03/04 10:22:25;;;;;;;42.60;34.27;;;;;;;;;;5073607;28;20481;-71
2024/03/04 10:25:02;;;;;;;44.17;36.50;;;;;;;;;;5073552;28;20470;-69
2024/03/04 10:27:29;;;;;;;43.03;35.67;;;;;;;;;;5073399;28;20455;-68
2024/03/04 10:30:09;;;;;;;39.37;32.50;;;;;;;;;;5073387;28;20444;-67
2024/03/04 10:32:36;;;;;;;43.50;33.20;;;;;;;;;;5073623;28;20439;-67
2024/03/04 10:35:04;;;;;;;43.73;33.90;;;;;;;;;;5073194;28;20456;-62
2024/03/04 10:37:31;;;;;;;44.47;35.47;;;;;;;;;;5071503;28;20934;-70
2024/03/04 10:39:58;;;;;;;44.13;35.00;;;;;;;;;;5080218;28;20466;-66
2024/03/04 10:42:26;;;;;;;46.23;35.33;;;;;;;;;;5078254;28;20440;-69
2024/03/04 10:44:54;;;;;;;45.77;36.53;;;;;;;;;;5079633;28;20453;-67
2024/03/04 10:47:21;;;;;;;52.77;38.17;;;;;;;;;;5085767;28;21006;-67
2024/03/04 10:49:49;;;;;;;47.27;39.03;;;;;;;;;;5083003;28;20795;-66
2024/03/04 10:52:16;;;;;;;50.83;37.17;;;;;;;;;;5086541;28;20522;-66
2024/03/04 10:54:43;;;;;;;48.90;38.10;;;;;;;;;;5074657;28;20954;-68
2024/03/04 10:57:18;;;;;;;49.33;38.20;;;;;;;;;;5072550;28;20479;-68
2024/03/04 10:59:47;;;;;;;50.17;39.07;;;;;;;;;;5072609;28;20443;-68
2024/03/04 11:02:18;;;;;;;50.60;38.93;;;;;;;;;;5072491;28;20669;-69
2024/03/04 11:04:46;;;;;;;59.47;41.03;;;;;;;;;;5072264;28;20530;-67
2024/03/04 11:07:13;;;;;;;49.30;40.23;;;;;;;;;;5072205;28;20542;-68
2024/03/04 11:09:43;;;;;;;52.13;41.67;;;;;;;;;;5072428;28;20444;-69
2024/03/04 11:12:11;;;;;;;57.10;40.77;;;;;;;;;;5072330;28;20469;-67
2024/03/04 11:14:41;;;;;;;58.40;40.63;;;;;;;;;;5070109;28;20448;-72
2024/03/04 11:17:13;;;;;;;54.47;41.10;;;;;;;;;;5072236;28;20510;-70
2024/03/04 11:19:48;;;;;;;60.57;44.70;;;;;;;;;;5070231;28;20485;-75
2024/03/04 11:22:16;;;;;;;60.43;44.40;;;;;;;;;;5072686;28;20443;-76
2024/03/04 11:24:43;;;;;;;59.23;44.67;;;;;;;;;;5074343;28;20947;-76
2024/03/04 11:27:10;;;;;;;65.50;43.13;;;;;;;;;;5072506;28;20526;-70
2024/03/04 11:29:38;;;;;;;56.30;43.60;;;;;;;;;;5072292;28;20471;-69
2024/03/04 11:32:08;;;;;;;60.50;43.20;;;;;;;;;;5075018;28;20823;-66
2024/03/04 11:34:58;;;;;;;56.37;43.70;;;;;;;;;;5076500;28;20522;-69
2024/03/04 11:37:25;;;;;;;59.93;44.30;;;;;;;;;;5075269;28;20574;-68
2024/03/04 11:39:52;;;;;;;55.53;42.43;;;;;;;;;;5073543;28;20888;-68
2024/03/04 11:42:33;;;;;;;57.43;44.03;;;;;;;;;;5076136;28;20438;-68
2024/03/04 11:45:00;;;;;;;49.53;39.93;;;;;;;;;;5074707;28;20449;-68
2024/03/04 11:47:30;;;;;;;56.53;42.77;;;;;;;;;;5075948;28;20772;-68
2024/03/04 11:49:59;;;;;;;56.20;45.67;;;;;;;;;;5076059;28;20455;-69
2024/03/04 11:52:27;;;;;;;56.73;43.90;;;;;;;;;;5076763;28;20443;-72
2024/03/04 11:54:56;;;;;;;61.40;46.67;;;;;;;;;;5073782;28;20493;-70
2024/03/04 11:57:24;;;;;;;57.57;45.60;;;;;;;;;;5075762;28;20477;-71
2024/03/04 11:59:58;;;;;;;57.33;43.80;;;;;;;;;;5075815;28;20443;-67
2024/03/04 12:02:25;;;;;;;55.30;44.13;;;;;;;;;;5075721;28;20884;-68
2024/03/04 12:04:52;;;;;;;51.30;41.60;;;;;;;;;;5072815;28;20443;-68
2024/03/04 12:07:21;;;;;;;57.90;45.63;;;;;;;;;;5075700;28;20439;-69
2024/03/04 12:09:48;;;;;;;52.23;40.97;;;;;;;;;;5075228;28;20450;-68
2024/03/04 12:12:15;;;;;;;54.80;41.80;;;;;;;;;;5075680;28;20439;-71
2024/03/04 12:14:43;;;;;;;52.97;41.43;;;;;;;;;;5075368;28;20470;-72
2024/03/04 12:17:11;;;;;;;50.97;38.70;;;;;;;;;;5075646;28;20563;-69
2024/03/04 12:19:38;;;;;;;54.03;41.47;;;;;;;;;;5075505;28;20479;-69
2024/03/04 12:22:05;;;;;;;52.60;41.20;;;;;;;;;;5075240;28;20442;-69
2024/03/04 12:24:33;;;;;;;54.80;42.63;;;;;;;;;;5072645;28;20526;-69
2024/03/04 12:27:00;;;;;;;53.27;41.93;;;;;;;;;;5075395;28;20876;-74
2024/03/04 12:29:27;;;;;;;52.67;41.50;;;;;;;;;;5075555;28;20807;-65
2024/03/04 12:31:55;;;;;;;53.73;40.20;;;;;;;;;;5075198;28;20439;-67
2024/03/04 12:34:22;;;;;;;55.20;41.17;;;;;;;;;;5075220;28;20815;-65
2024/03/04 12:36:50;;;;;;;53.07;39.80;;;;;;;;;;5074861;28;20474;-69
2024/03/04 12:39:19;;;;;;;48.90;38.77;;;;;;;;;;5074976;28;20857;-64
2024/03/04 12:41:48;;;;;;;50.57;40.37;;;;;;;;;;5074823;28;20483;-64
2024/03/04 12:44:18;;;;;;;53.20;40.30;;;;;;;;;;5072551;28;20882;-64
2024/03/04 12:46:47;;;;;;;49.20;38.40;;;;;;;;;;5075028;28;20882;-67
2024/03/04 12:49:15;;;;;;;53.67;38.90;;;;;;;;;;5072225;28;20467;-69
2024/03/04 12:51:42;;;;;;;51.80;39.20;;;;;;;;;;5074862;28;20447;-65
2024/03/04 12:54:09;;;;;;;53.97;41.23;;;;;;;;;;5074978;28;20434;-78
2024/03/04 12:56:36;;;;;;;45.67;37.00;;;;;;;;;;5075081;28;20479;-72
2024/03/04 12:59:04;;;;;;;42.77;36.27;;;;;;;;;;5074854;28;20446;-74
2024/03/04 13:01:31;;;;;;;43.10;36.20;;;;;;;;;;5074574;28;20440;-74
2024/03/04 13:03:58;;;;;;;47.43;35.37;;;;;;;;;;5074242;28;20439;-73
2024/03/04 13:06:25;;;;;;;42.70;34.00;;;;;;;;;;5071887;28;20888;-70
2024/03/04 13:08:52;;;;;;;47.77;34.60;;;;;;;;;;5074595;28;20450;-69
2024/03/04 13:11:19;;;;;;;41.03;34.23;;;;;;;;;;5074560;28;20497;-73
2024/03/04 13:13:46;;;;;;;46.40;34.57;;;;;;;;;;5071682;28;20443;-69
2024/03/04 13:16:15;;;;;;;48.40;34.77;;;;;;;;;;5073971;28;20554;-72
2024/03/04 13:18:42;;;;;;;43.03;34.00;;;;;;;;;;5074335;28;20539;-69
2024/03/04 13:21:08;;;;;;;39.50;32.73;;;;;;;;;;5074324;28;20542;-66
2024/03/04 13:23:35;;;;;;;39.30;33.40;;;;;;;;;;5074316;28;20440;-70
2024/03/04 13:26:03;;;;;;;44.90;33.90;;;;;;;;;;5073992;28;20877;-73
2024/03/04 13:28:30;;;;;;;37.70;30.90;;;;;;;;;;5074065;28;20937;-73
2024/03/04 13:30:57;;;;;;;41.93;34.07;;;;;;;;;;5073890;28;20450;-73
2024/03/04 13:33:25;;;;;;;40.57;32.60;;;;;;;;;;5074313;28;20842;-71
2024/03/04 13:35:52;;;;;;;38.93;32.77;;;;;;;;;;5074214;28;20485;-69
2024/03/04 13:38:19;;;;;;;37.20;31.13;;;;;;;;;;5074023;28;20481;-73
2024/03/04 13:40:46;;;;;;;39.80;32.90;;;;;;;;;;5073734;28;20570;-74
2024/03/04 13:43:13;;;;;;;39.60;32.00;;;;;;;;;;5073594;28;20957;-71
2024/03/04 13:45:40;;;;;;;40.63;32.07;;;;;;;;;;5073530;28;20534;-70
2024/03/04 13:48:07;;;;;;;48.50;31.73;;;;;;;;;;5073797;28;20810;-68
2024/03/04 13:50:35;;;;;;;46.97;33.73;;;;;;;;;;5073735;28;20526;-70
2024/03/04 13:53:02;;;;;;;40.60;32.67;;;;;;;;;;5073401;28;20440;-73
2024/03/04 13:55:29;;;;;;;37.83;32.37;;;;;;;;;;5073061;28;20435;-74
2024/03/04 13:57:56;;;;;;;45.90;33.00;;;;;;;;;;5073382;28;20483;-71
2024/03/04 14:00:24;;;;;;;36.80;31.00;;;;;;;;;;5073566;28;20467;-69
2024/03/04 14:02:51;;;;;;;39.53;31.57;;;;;;;;;;5073196;28;20559;-69
2024/03/04 14:05:18;;;;;;;37.83;30.80;;;;;;;;;;5072242;28;20857;-69
2024/03/04 14:07:46;;;;;;;44.00;31.17;;;;;;;;;;5073411;28;20534;-69
2024/03/04 14:10:13;;;;;;;42.00;31.47;;;;;;;;;;5073666;28;20938;-69
2024/03/04 14:12:40;;;;;;;37.77;31.03;;;;;;;;;;5073426;28;20530;-69
2024/03/04 14:15:08;;;;;;;43.47;33.53;;;;;;;;;;5073738;28;20443;-69
2024/03/04 14:17:35;;;;;;;41.57;35.33;;;;;;;;;;5073044;28;20491;-69